sensor_id;sensor_type;location;lat;lon;timestamp;P1;durP1;ratioP1;P2;durP2;ratioP2
43226;SDS011;28839;52.404;9.808;2023-06-05T00:04:14;4.65;;;2.72;;
43226;SDS011;28839;52.404;9.808;2023-06-05T00:11:09;3.90;;;2.60;;
43226;SDS011;28839;52.404;9.808;2023-06-05T00:18:03;5.07;;;2.83;;
43226;SDS011;28839;52.404;9.808;2023-06-05T00:24:57;4.77;;;2.80;;
43226;SDS011;28839;52.404;9.808;2023-06-05T00:31:52;3.87;;;2.33;;
43226;SDS011;28839;52.404;9.808;2023-06-05T00:38:49;3.70;;;2.60;;
43226;SDS011;28839;52.404;9.808;2023-06-05T00:45:44;5.60;;;2.65;;
43226;SDS011;28839;52.404;9.808;2023-06-05T00:52:39;4.27;;;2.60;;
43226;SDS011;28839;52.404;9.808;2023-06-05T00:59:34;5.15;;;2.67;;
43226;SDS011;28839;52.404;9.808;2023-06-05T01:06:30;4.78;;;2.72;;
43226;SDS011;28839;52.404;9.808;2023-06-05T01:13:27;6.57;;;2.55;;
43226;SDS011;28839;52.404;9.808;2023-06-05T01:20:31;4.85;;;2.90;;
43226;SDS011;28839;52.404;9.808;2023-06-05T01:27:27;3.65;;;2.65;;
43226;SDS011;28839;52.404;9.808;2023-06-05T01:34:25;3.85;;;2.85;;
43226;SDS011;28839;52.404;9.808;2023-06-05T01:41:20;4.62;;;3.05;;
43226;SDS011;28839;52.404;9.808;2023-06-05T01:48:16;9.10;;;3.45;;
43226;SDS011;28839;52.404;9.808;2023-06-05T01:55:14;10.70;;;4.75;;
43226;SDS011;28839;52.404;9.808;2023-06-05T02:02:11;5.93;;;3.45;;
43226;SDS011;28839;52.404;9.808;2023-06-05T02:09:08;4.70;;;3.45;;
43226;SDS011;28839;52.404;9.808;2023-06-05T02:16:03;6.28;;;3.30;;
43226;SDS011;28839;52.404;9.808;2023-06-05T02:22:57;4.17;;;3.57;;
43226;SDS011;28839;52.404;9.808;2023-06-05T02:29:53;5.57;;;3.87;;
43226;SDS011;28839;52.404;9.808;2023-06-05T02:36:46;5.37;;;3.78;;
43226;SDS011;28839;52.404;9.808;2023-06-05T02:43:42;7.90;;;4.22;;
43226;SDS011;28839;52.404;9.808;2023-06-05T02:50:37;7.33;;;4.53;;
43226;SDS011;28839;52.404;9.808;2023-06-05T02:57:31;6.57;;;4.47;;
43226;SDS011;28839;52.404;9.808;2023-06-05T03:04:33;7.72;;;4.00;;
43226;SDS011;28839;52.404;9.808;2023-06-05T03:11:28;6.35;;;4.18;;
43226;SDS011;28839;52.404;9.808;2023-06-05T03:18:22;6.75;;;4.45;;
43226;SDS011;28839;52.404;9.808;2023-06-05T03:25:16;7.55;;;4.55;;
43226;SDS011;28839;52.404;9.808;2023-06-05T03:32:12;8.00;;;4.73;;
43226;SDS011;28839;52.404;9.808;2023-06-05T03:39:06;7.47;;;4.22;;
43226;SDS011;28839;52.404;9.808;2023-06-05T03:45:59;8.60;;;4.60;;
43226;SDS011;28839;52.404;9.808;2023-06-05T03:52:55;7.18;;;5.28;;
43226;SDS011;28839;52.404;9.808;2023-06-05T03:59:54;8.75;;;5.18;;
43226;SDS011;28839;52.404;9.808;2023-06-05T04:06:48;10.73;;;5.80;;
43226;SDS011;28839;52.404;9.808;2023-06-05T04:13:43;8.85;;;5.32;;
43226;SDS011;28839;52.404;9.808;2023-06-05T04:20:37;6.87;;;5.45;;
43226;SDS011;28839;52.404;9.808;2023-06-05T04:27:31;6.20;;;5.15;;
43226;SDS011;28839;52.404;9.808;2023-06-05T04:34:26;6.65;;;5.10;;
43226;SDS011;28839;52.404;9.808;2023-06-05T04:41:19;10.27;;;5.70;;
43226;SDS011;28839;52.404;9.808;2023-06-05T04:48:14;7.32;;;5.32;;
43226;SDS011;28839;52.404;9.808;2023-06-05T04:55:09;11.80;;;6.87;;
43226;SDS011;28839;52.404;9.808;2023-06-05T05:02:03;11.02;;;5.90;;
43226;SDS011;28839;52.404;9.808;2023-06-05T05:08:57;10.17;;;6.13;;
43226;SDS011;28839;52.404;9.808;2023-06-05T05:15:52;10.70;;;5.30;;
43226;SDS011;28839;52.404;9.808;2023-06-05T05:22:46;10.75;;;5.65;;
43226;SDS011;28839;52.404;9.808;2023-06-05T05:29:40;11.37;;;5.33;;
43226;SDS011;28839;52.404;9.808;2023-06-05T05:36:35;8.48;;;5.37;;
43226;SDS011;28839;52.404;9.808;2023-06-05T05:43:29;8.82;;;5.68;;
43226;SDS011;28839;52.404;9.808;2023-06-05T05:50:23;8.40;;;5.53;;
43226;SDS011;28839;52.404;9.808;2023-06-05T05:57:18;9.37;;;5.47;;
43226;SDS011;28839;52.404;9.808;2023-06-05T06:04:12;10.15;;;4.93;;
43226;SDS011;28839;52.404;9.808;2023-06-05T06:11:06;14.27;;;5.60;;
43226;SDS011;28839;52.404;9.808;2023-06-05T06:18:02;13.32;;;5.20;;
43226;SDS011;28839;52.404;9.808;2023-06-05T06:24:56;10.10;;;4.90;;
43226;SDS011;28839;52.404;9.808;2023-06-05T06:31:50;11.83;;;4.80;;
43226;SDS011;28839;52.404;9.808;2023-06-05T06:38:45;10.77;;;4.63;;
43226;SDS011;28839;52.404;9.808;2023-06-05T06:45:39;7.35;;;4.12;;
43226;SDS011;28839;52.404;9.808;2023-06-05T06:52:33;9.15;;;4.72;;
43226;SDS011;28839;52.404;9.808;2023-06-05T06:59:28;9.45;;;4.97;;
43226;SDS011;28839;52.404;9.808;2023-06-05T07:06:23;16.75;;;4.35;;
43226;SDS011;28839;52.404;9.808;2023-06-05T07:20:12;7.93;;;4.55;;
43226;SDS011;28839;52.404;9.808;2023-06-05T07:27:06;13.62;;;5.15;;
43226;SDS011;28839;52.404;9.808;2023-06-05T07:34:00;13.48;;;4.93;;
43226;SDS011;28839;52.404;9.808;2023-06-05T07:40:55;7.95;;;4.78;;
43226;SDS011;28839;52.404;9.808;2023-06-05T07:47:50;7.70;;;4.07;;
43226;SDS011;28839;52.404;9.808;2023-06-05T08:01:39;7.17;;;3.50;;
43226;SDS011;28839;52.404;9.808;2023-06-05T08:08:33;7.65;;;3.58;;
43226;SDS011;28839;52.404;9.808;2023-06-05T08:15:26;7.55;;;3.37;;
43226;SDS011;28839;52.404;9.808;2023-06-05T08:22:22;6.78;;;2.80;;
43226;SDS011;28839;52.404;9.808;2023-06-05T08:29:16;7.97;;;3.12;;
43226;SDS011;28839;52.404;9.808;2023-06-05T08:36:09;4.75;;;2.65;;
43226;SDS011;28839;52.404;9.808;2023-06-05T08:43:05;12.98;;;3.25;;
43226;SDS011;28839;52.404;9.808;2023-06-05T08:49:58;8.10;;;2.90;;
43226;SDS011;28839;52.404;9.808;2023-06-05T08:56:56;5.25;;;2.35;;
43226;SDS011;28839;52.404;9.808;2023-06-05T09:03:52;5.70;;;2.83;;
43226;SDS011;28839;52.404;9.808;2023-06-05T09:10:46;5.12;;;2.80;;
43226;SDS011;28839;52.404;9.808;2023-06-05T09:17:40;4.22;;;2.35;;
43226;SDS011;28839;52.404;9.808;2023-06-05T09:24:35;5.62;;;2.40;;
43226;SDS011;28839;52.404;9.808;2023-06-05T09:31:33;5.18;;;1.75;;
43226;SDS011;28839;52.404;9.808;2023-06-05T09:38:34;7.68;;;1.70;;
43226;SDS011;28839;52.404;9.808;2023-06-05T09:45:41;3.33;;;1.67;;
43226;SDS011;28839;52.404;9.808;2023-06-05T09:52:35;5.20;;;2.05;;
43226;SDS011;28839;52.404;9.808;2023-06-05T09:59:32;3.78;;;1.90;;
43226;SDS011;28839;52.404;9.808;2023-06-05T10:06:28;4.90;;;1.90;;
43226;SDS011;28839;52.404;9.808;2023-06-05T10:13:22;2.47;;;1.60;;
43226;SDS011;28839;52.404;9.808;2023-06-05T10:20:17;5.10;;;1.95;;
43226;SDS011;28839;52.404;9.808;2023-06-05T10:34:44;3.92;;;1.42;;
43226;SDS011;28839;52.404;9.808;2023-06-05T10:41:42;3.20;;;1.52;;
43226;SDS011;28839;52.404;9.808;2023-06-05T11:03:33;3.55;;;1.80;;
43226;SDS011;28839;52.404;9.808;2023-06-05T11:11:03;6.50;;;1.87;;
43226;SDS011;28839;52.404;9.808;2023-06-05T11:17:58;6.62;;;1.87;;
43226;SDS011;28839;52.404;9.808;2023-06-05T11:25:26;3.97;;;1.95;;
43226;SDS011;28839;52.404;9.808;2023-06-05T11:32:24;2.65;;;1.85;;
43226;SDS011;28839;52.404;9.808;2023-06-05T11:39:20;3.17;;;1.92;;
43226;SDS011;28839;52.404;9.808;2023-06-05T11:46:14;2.28;;;2.00;;
43226;SDS011;28839;52.404;9.808;2023-06-05T11:53:08;9.68;;;2.30;;
43226;SDS011;28839;52.404;9.808;2023-06-05T12:00:05;2.90;;;1.73;;
43226;SDS011;28839;52.404;9.808;2023-06-05T12:07:01;3.53;;;2.03;;
43226;SDS011;28839;52.404;9.808;2023-06-05T12:13:56;2.72;;;1.90;;
43226;SDS011;28839;52.404;9.808;2023-06-05T12:20:52;4.85;;;2.03;;
43226;SDS011;28839;52.404;9.808;2023-06-05T12:27:45;3.37;;;1.85;;
43226;SDS011;28839;52.404;9.808;2023-06-05T12:34:41;2.22;;;1.70;;
43226;SDS011;28839;52.404;9.808;2023-06-05T12:41:38;3.67;;;1.50;;
43226;SDS011;28839;52.404;9.808;2023-06-05T12:48:32;5.00;;;1.98;;
43226;SDS011;28839;52.404;9.808;2023-06-05T12:55:27;4.50;;;1.90;;
43226;SDS011;28839;52.404;9.808;2023-06-05T13:02:22;3.15;;;2.12;;
43226;SDS011;28839;52.404;9.808;2023-06-05T13:09:17;2.83;;;1.87;;
43226;SDS011;28839;52.404;9.808;2023-06-05T13:16:11;6.85;;;2.00;;
43226;SDS011;28839;52.404;9.808;2023-06-05T13:23:06;3.28;;;2.45;;
43226;SDS011;28839;52.404;9.808;2023-06-05T13:30:02;6.10;;;2.03;;
43226;SDS011;28839;52.404;9.808;2023-06-05T13:36:57;3.28;;;1.80;;
43226;SDS011;28839;52.404;9.808;2023-06-05T13:43:52;4.12;;;2.17;;
43226;SDS011;28839;52.404;9.808;2023-06-05T13:50:48;4.12;;;2.17;;
43226;SDS011;28839;52.404;9.808;2023-06-05T13:57:42;2.53;;;1.83;;
43226;SDS011;28839;52.404;9.808;2023-06-05T14:04:37;2.85;;;1.90;;
43226;SDS011;28839;52.404;9.808;2023-06-05T14:11:31;3.60;;;2.35;;
43226;SDS011;28839;52.404;9.808;2023-06-05T14:18:25;2.80;;;1.80;;
43226;SDS011;28839;52.404;9.808;2023-06-05T14:25:20;2.95;;;2.10;;
43226;SDS011;28839;52.404;9.808;2023-06-05T14:32:14;3.95;;;1.75;;
43226;SDS011;28839;52.404;9.808;2023-06-05T14:39:08;2.10;;;1.70;;
43226;SDS011;28839;52.404;9.808;2023-06-05T14:46:03;2.10;;;1.60;;
43226;SDS011;28839;52.404;9.808;2023-06-05T14:52:57;4.47;;;2.53;;
43226;SDS011;28839;52.404;9.808;2023-06-05T14:59:50;6.80;;;2.30;;
43226;SDS011;28839;52.404;9.808;2023-06-05T15:06:46;5.25;;;2.03;;
43226;SDS011;28839;52.404;9.808;2023-06-05T15:13:43;3.22;;;2.37;;
43226;SDS011;28839;52.404;9.808;2023-06-05T15:20:36;5.53;;;2.50;;
43226;SDS011;28839;52.404;9.808;2023-06-05T15:27:31;2.92;;;2.05;;
43226;SDS011;28839;52.404;9.808;2023-06-05T15:34:26;2.90;;;2.30;;
43226;SDS011;28839;52.404;9.808;2023-06-05T15:41:21;3.50;;;2.10;;
43226;SDS011;28839;52.404;9.808;2023-06-05T15:48:17;5.03;;;1.87;;
43226;SDS011;28839;52.404;9.808;2023-06-05T15:55:12;3.22;;;2.03;;
43226;SDS011;28839;52.404;9.808;2023-06-05T16:02:06;5.87;;;2.45;;
43226;SDS011;28839;52.404;9.808;2023-06-05T16:09:01;2.87;;;2.25;;
43226;SDS011;28839;52.404;9.808;2023-06-05T16:15:55;6.78;;;2.22;;
43226;SDS011;28839;52.404;9.808;2023-06-05T16:22:49;4.82;;;2.22;;
43226;SDS011;28839;52.404;9.808;2023-06-05T16:29:44;3.35;;;2.08;;
43226;SDS011;28839;52.404;9.808;2023-06-05T16:36:39;4.43;;;2.37;;
43226;SDS011;28839;52.404;9.808;2023-06-05T16:43:33;6.22;;;2.22;;
43226;SDS011;28839;52.404;9.808;2023-06-05T16:50:28;2.65;;;1.95;;
43226;SDS011;28839;52.404;9.808;2023-06-05T16:57:22;6.57;;;2.47;;
43226;SDS011;28839;52.404;9.808;2023-06-05T17:04:16;10.40;;;2.50;;
43226;SDS011;28839;52.404;9.808;2023-06-05T17:11:11;3.08;;;2.15;;
43226;SDS011;28839;52.404;9.808;2023-06-05T17:18:08;2.10;;;1.90;;
43226;SDS011;28839;52.404;9.808;2023-06-05T17:25:02;4.32;;;2.08;;
43226;SDS011;28839;52.404;9.808;2023-06-05T17:31:57;4.12;;;2.50;;
43226;SDS011;28839;52.404;9.808;2023-06-05T17:38:51;5.55;;;2.30;;
43226;SDS011;28839;52.404;9.808;2023-06-05T17:52:40;2.07;;;1.90;;
43226;SDS011;28839;52.404;9.808;2023-06-05T17:59:34;3.70;;;2.12;;
43226;SDS011;28839;52.404;9.808;2023-06-05T18:06:28;3.53;;;2.12;;
43226;SDS011;28839;52.404;9.808;2023-06-05T18:20:17;8.10;;;2.67;;
43226;SDS011;28839;52.404;9.808;2023-06-05T18:34:06;2.83;;;2.07;;
43226;SDS011;28839;52.404;9.808;2023-06-05T18:41:00;4.18;;;2.00;;
43226;SDS011;28839;52.404;9.808;2023-06-05T18:47:54;3.92;;;2.30;;
43226;SDS011;28839;52.404;9.808;2023-06-05T19:01:43;7.80;;;2.85;;
43226;SDS011;28839;52.404;9.808;2023-06-05T19:08:37;9.43;;;3.20;;
43226;SDS011;28839;52.404;9.808;2023-06-05T19:15:33;8.65;;;2.80;;
43226;SDS011;28839;52.404;9.808;2023-06-05T19:22:27;9.15;;;2.97;;
43226;SDS011;28839;52.404;9.808;2023-06-05T19:29:20;12.05;;;6.60;;
43226;SDS011;28839;52.404;9.808;2023-06-05T19:43:09;5.05;;;3.17;;
43226;SDS011;28839;52.404;9.808;2023-06-05T19:50:03;11.52;;;4.30;;
43226;SDS011;28839;52.404;9.808;2023-06-05T19:56:59;8.95;;;3.78;;
43226;SDS011;28839;52.404;9.808;2023-06-05T20:03:53;8.88;;;3.47;;
43226;SDS011;28839;52.404;9.808;2023-06-05T20:10:47;11.75;;;3.70;;
43226;SDS011;28839;52.404;9.808;2023-06-05T20:17:43;10.00;;;3.28;;
43226;SDS011;28839;52.404;9.808;2023-06-05T20:24:36;8.05;;;3.28;;
43226;SDS011;28839;52.404;9.808;2023-06-05T20:31:30;10.68;;;3.15;;
43226;SDS011;28839;52.404;9.808;2023-06-05T20:38:26;9.63;;;3.83;;
43226;SDS011;28839;52.404;9.808;2023-06-05T20:45:20;12.35;;;4.65;;
43226;SDS011;28839;52.404;9.808;2023-06-05T20:52:19;9.20;;;4.87;;
43226;SDS011;28839;52.404;9.808;2023-06-05T20:59:14;5.30;;;3.92;;
43226;SDS011;28839;52.404;9.808;2023-06-05T21:06:08;7.62;;;4.00;;
43226;SDS011;28839;52.404;9.808;2023-06-05T21:13:02;10.60;;;4.53;;
43226;SDS011;28839;52.404;9.808;2023-06-05T21:19:57;7.43;;;3.27;;
43226;SDS011;28839;52.404;9.808;2023-06-05T21:26:51;11.98;;;3.67;;
43226;SDS011;28839;52.404;9.808;2023-06-05T21:33:45;8.43;;;3.30;;
43226;SDS011;28839;52.404;9.808;2023-06-05T21:40:42;8.93;;;5.17;;
43226;SDS011;28839;52.404;9.808;2023-06-05T21:47:36;6.45;;;3.58;;
43226;SDS011;28839;52.404;9.808;2023-06-05T21:54:30;8.47;;;4.33;;
43226;SDS011;28839;52.404;9.808;2023-06-05T22:01:27;5.37;;;3.08;;
43226;SDS011;28839;52.404;9.808;2023-06-05T22:08:21;6.93;;;3.30;;
43226;SDS011;28839;52.404;9.808;2023-06-05T22:15:15;7.62;;;4.10;;
43226;SDS011;28839;52.404;9.808;2023-06-05T22:22:13;9.63;;;3.90;;
43226;SDS011;28839;52.404;9.808;2023-06-05T22:29:07;4.35;;;3.20;;
43226;SDS011;28839;52.404;9.808;2023-06-05T22:36:01;5.47;;;3.97;;
43226;SDS011;28839;52.404;9.808;2023-06-05T22:42:56;5.62;;;3.55;;
43226;SDS011;28839;52.404;9.808;2023-06-05T22:49:50;9.52;;;3.70;;
43226;SDS011;28839;52.404;9.808;2023-06-05T22:56:45;4.00;;;3.60;;
43226;SDS011;28839;52.404;9.808;2023-06-05T23:03:40;5.93;;;3.60;;
43226;SDS011;28839;52.404;9.808;2023-06-05T23:10:34;6.70;;;4.10;;
43226;SDS011;28839;52.404;9.808;2023-06-05T23:17:28;5.07;;;3.90;;
43226;SDS011;28839;52.404;9.808;2023-06-05T23:24:23;3.90;;;3.47;;
43226;SDS011;28839;52.404;9.808;2023-06-05T23:31:17;5.45;;;3.97;;
43226;SDS011;28839;52.404;9.808;2023-06-05T23:38:11;4.77;;;3.77;;
43226;SDS011;28839;52.404;9.808;2023-06-05T23:45:07;5.73;;;3.70;;
43226;SDS011;28839;52.404;9.808;2023-06-05T23:52:01;5.47;;;3.95;;
43226;SDS011;28839;52.404;9.808;2023-06-05T23:58:55;6.45;;;3.87;;
